sensor_id;sensor_type;location;lat;lon;timestamp;P1;durP1;ratioP1;P2;durP2;ratioP2
25349;SDS011;13302;48.796;11.978;2023-04-25T00:02:09;1.30;;;1.20;;
25349;SDS011;13302;48.796;11.978;2023-04-25T00:04:56;1.23;;;1.20;;
25349;SDS011;13302;48.796;11.978;2023-04-25T00:07:45;1.40;;;1.40;;
25349;SDS011;13302;48.796;11.978;2023-04-25T00:10:32;1.57;;;1.47;;
25349;SDS011;13302;48.796;11.978;2023-04-25T00:13:19;1.30;;;1.30;;
25349;SDS011;13302;48.796;11.978;2023-04-25T00:16:07;2.93;;;1.40;;
25349;SDS011;13302;48.796;11.978;2023-04-25T00:18:54;1.27;;;1.27;;
25349;SDS011;13302;48.796;11.978;2023-04-25T00:21:41;1.30;;;1.30;;
25349;SDS011;13302;48.796;11.978;2023-04-25T00:24:28;1.60;;;1.50;;
25349;SDS011;13302;48.796;11.978;2023-04-25T00:27:15;1.33;;;1.23;;
25349;SDS011;13302;48.796;11.978;2023-04-25T00:30:03;1.30;;;1.30;;
25349;SDS011;13302;48.796;11.978;2023-04-25T00:32:50;1.40;;;1.30;;
25349;SDS011;13302;48.796;11.978;2023-04-25T00:35:37;1.30;;;1.30;;
25349;SDS011;13302;48.796;11.978;2023-04-25T00:38:24;1.67;;;1.20;;
25349;SDS011;13302;48.796;11.978;2023-04-25T00:41:11;1.03;;;1.03;;
25349;SDS011;13302;48.796;11.978;2023-04-25T00:43:58;1.17;;;1.17;;
25349;SDS011;13302;48.796;11.978;2023-04-25T00:46:47;1.43;;;1.43;;
25349;SDS011;13302;48.796;11.978;2023-04-25T00:49:36;1.47;;;1.37;;
25349;SDS011;13302;48.796;11.978;2023-04-25T00:52:23;1.50;;;1.40;;
25349;SDS011;13302;48.796;11.978;2023-04-25T00:55:10;1.77;;;1.67;;
25349;SDS011;13302;48.796;11.978;2023-04-25T00:57:59;1.27;;;1.27;;
25349;SDS011;13302;48.796;11.978;2023-04-25T01:00:46;1.30;;;1.30;;
25349;SDS011;13302;48.796;11.978;2023-04-25T01:03:34;1.23;;;1.23;;
25349;SDS011;13302;48.796;11.978;2023-04-25T01:06:28;1.10;;;1.00;;
25349;SDS011;13302;48.796;11.978;2023-04-25T01:09:15;1.10;;;1.10;;
25349;SDS011;13302;48.796;11.978;2023-04-25T01:12:02;1.33;;;1.27;;
25349;SDS011;13302;48.796;11.978;2023-04-25T01:14:49;1.40;;;1.40;;
25349;SDS011;13302;48.796;11.978;2023-04-25T01:17:36;1.47;;;1.37;;
25349;SDS011;13302;48.796;11.978;2023-04-25T01:20:24;1.20;;;1.20;;
25349;SDS011;13302;48.796;11.978;2023-04-25T01:23:13;1.27;;;1.27;;
25349;SDS011;13302;48.796;11.978;2023-04-25T01:26:00;1.50;;;1.50;;
25349;SDS011;13302;48.796;11.978;2023-04-25T01:28:48;1.40;;;1.40;;
25349;SDS011;13302;48.796;11.978;2023-04-25T01:31:36;1.40;;;1.40;;
25349;SDS011;13302;48.796;11.978;2023-04-25T01:34:25;1.50;;;1.50;;
25349;SDS011;13302;48.796;11.978;2023-04-25T01:37:12;1.47;;;1.47;;
25349;SDS011;13302;48.796;11.978;2023-04-25T01:39:59;1.70;;;1.60;;
25349;SDS011;13302;48.796;11.978;2023-04-25T01:42:46;1.60;;;1.50;;
25349;SDS011;13302;48.796;11.978;2023-04-25T01:45:34;1.30;;;1.30;;
25349;SDS011;13302;48.796;11.978;2023-04-25T01:48:23;1.60;;;1.50;;
25349;SDS011;13302;48.796;11.978;2023-04-25T01:51:10;1.50;;;1.50;;
25349;SDS011;13302;48.796;11.978;2023-04-25T01:53:58;1.37;;;1.37;;
25349;SDS011;13302;48.796;11.978;2023-04-25T01:56:50;1.60;;;1.40;;
25349;SDS011;13302;48.796;11.978;2023-04-25T01:59:39;1.40;;;1.40;;
25349;SDS011;13302;48.796;11.978;2023-04-25T02:02:59;1.20;;;1.20;;
25349;SDS011;13302;48.796;11.978;2023-04-25T02:05:50;1.60;;;1.50;;
25349;SDS011;13302;48.796;11.978;2023-04-25T02:08:38;1.67;;;1.57;;
25349;SDS011;13302;48.796;11.978;2023-04-25T02:11:25;1.40;;;1.40;;
25349;SDS011;13302;48.796;11.978;2023-04-25T02:14:31;1.60;;;1.60;;
25349;SDS011;13302;48.796;11.978;2023-04-25T02:17:40;1.70;;;1.60;;
25349;SDS011;13302;48.796;11.978;2023-04-25T02:20:28;1.47;;;1.37;;
25349;SDS011;13302;48.796;11.978;2023-04-25T02:23:17;1.97;;;1.47;;
25349;SDS011;13302;48.796;11.978;2023-04-25T02:26:05;1.43;;;1.43;;
25349;SDS011;13302;48.796;11.978;2023-04-25T02:28:52;1.20;;;1.20;;
25349;SDS011;13302;48.796;11.978;2023-04-25T02:31:39;1.80;;;1.70;;
25349;SDS011;13302;48.796;11.978;2023-04-25T02:34:26;1.63;;;1.50;;
25349;SDS011;13302;48.796;11.978;2023-04-25T02:37:13;1.30;;;1.30;;
25349;SDS011;13302;48.796;11.978;2023-04-25T02:40:01;1.30;;;1.30;;
25349;SDS011;13302;48.796;11.978;2023-04-25T02:42:50;1.60;;;1.50;;
25349;SDS011;13302;48.796;11.978;2023-04-25T02:45:38;1.10;;;1.10;;
25349;SDS011;13302;48.796;11.978;2023-04-25T02:48:25;1.30;;;1.30;;
25349;SDS011;13302;48.796;11.978;2023-04-25T02:51:12;1.33;;;1.33;;
25349;SDS011;13302;48.796;11.978;2023-04-25T02:53:59;1.70;;;1.60;;
25349;SDS011;13302;48.796;11.978;2023-04-25T02:56:46;1.73;;;1.63;;
25349;SDS011;13302;48.796;11.978;2023-04-25T02:59:39;1.47;;;1.47;;
25349;SDS011;13302;48.796;11.978;2023-04-25T03:02:25;1.63;;;1.50;;
25349;SDS011;13302;48.796;11.978;2023-04-25T03:05:13;1.70;;;1.60;;
25349;SDS011;13302;48.796;11.978;2023-04-25T03:08:00;1.53;;;1.50;;
25349;SDS011;13302;48.796;11.978;2023-04-25T03:10:47;1.73;;;1.63;;
25349;SDS011;13302;48.796;11.978;2023-04-25T03:13:35;1.37;;;1.30;;
25349;SDS011;13302;48.796;11.978;2023-04-25T03:16:23;1.90;;;1.60;;
25349;SDS011;13302;48.796;11.978;2023-04-25T03:19:10;1.40;;;1.33;;
25349;SDS011;13302;48.796;11.978;2023-04-25T03:21:57;2.50;;;1.60;;
25349;SDS011;13302;48.796;11.978;2023-04-25T03:24:44;1.50;;;1.50;;
25349;SDS011;13302;48.796;11.978;2023-04-25T03:27:33;1.77;;;1.67;;
25349;SDS011;13302;48.796;11.978;2023-04-25T03:30:20;2.47;;;1.50;;
25349;SDS011;13302;48.796;11.978;2023-04-25T03:33:07;1.40;;;1.40;;
25349;SDS011;13302;48.796;11.978;2023-04-25T03:35:54;1.73;;;1.73;;
25349;SDS011;13302;48.796;11.978;2023-04-25T03:38:41;1.70;;;1.60;;
25349;SDS011;13302;48.796;11.978;2023-04-25T03:41:30;1.63;;;1.63;;
25349;SDS011;13302;48.796;11.978;2023-04-25T03:44:23;1.83;;;1.73;;
25349;SDS011;13302;48.796;11.978;2023-04-25T03:47:11;1.50;;;1.40;;
25349;SDS011;13302;48.796;11.978;2023-04-25T03:49:58;1.30;;;1.30;;
25349;SDS011;13302;48.796;11.978;2023-04-25T03:52:49;1.47;;;1.47;;
25349;SDS011;13302;48.796;11.978;2023-04-25T03:55:36;2.40;;;1.50;;
25349;SDS011;13302;48.796;11.978;2023-04-25T03:58:23;2.03;;;1.93;;
25349;SDS011;13302;48.796;11.978;2023-04-25T04:01:11;1.93;;;1.63;;
25349;SDS011;13302;48.796;11.978;2023-04-25T04:03:59;1.47;;;1.30;;
25349;SDS011;13302;48.796;11.978;2023-04-25T04:06:48;1.80;;;1.67;;
25349;SDS011;13302;48.796;11.978;2023-04-25T04:09:40;1.30;;;1.30;;
25349;SDS011;13302;48.796;11.978;2023-04-25T04:12:32;1.80;;;1.70;;
25349;SDS011;13302;48.796;11.978;2023-04-25T04:15:21;1.70;;;1.60;;
25349;SDS011;13302;48.796;11.978;2023-04-25T04:18:09;1.70;;;1.50;;
25349;SDS011;13302;48.796;11.978;2023-04-25T04:20:56;1.80;;;1.70;;
25349;SDS011;13302;48.796;11.978;2023-04-25T04:23:47;1.90;;;1.70;;
25349;SDS011;13302;48.796;11.978;2023-04-25T04:26:35;1.80;;;1.70;;
25349;SDS011;13302;48.796;11.978;2023-04-25T04:29:39;2.13;;;1.70;;
25349;SDS011;13302;48.796;11.978;2023-04-25T04:32:35;1.77;;;1.70;;
25349;SDS011;13302;48.796;11.978;2023-04-25T04:35:23;2.00;;;1.77;;
25349;SDS011;13302;48.796;11.978;2023-04-25T04:38:11;1.80;;;1.70;;
25349;SDS011;13302;48.796;11.978;2023-04-25T04:40:59;1.63;;;1.63;;
25349;SDS011;13302;48.796;11.978;2023-04-25T04:44:04;1.73;;;1.63;;
25349;SDS011;13302;48.796;11.978;2023-04-25T04:47:01;2.00;;;1.90;;
25349;SDS011;13302;48.796;11.978;2023-04-25T04:50:13;1.90;;;1.73;;
25349;SDS011;13302;48.796;11.978;2023-04-25T04:53:20;1.80;;;1.70;;
25349;SDS011;13302;48.796;11.978;2023-04-25T04:56:26;2.93;;;1.90;;
25349;SDS011;13302;48.796;11.978;2023-04-25T04:59:53;1.70;;;1.53;;
25349;SDS011;13302;48.796;11.978;2023-04-25T05:03:16;1.70;;;1.70;;
25349;SDS011;13302;48.796;11.978;2023-04-25T05:06:35;1.67;;;1.67;;
25349;SDS011;13302;48.796;11.978;2023-04-25T05:09:58;1.70;;;1.60;;
25349;SDS011;13302;48.796;11.978;2023-04-25T05:13:02;1.40;;;1.40;;
25349;SDS011;13302;48.796;11.978;2023-04-25T05:16:21;1.57;;;1.47;;
25349;SDS011;13302;48.796;11.978;2023-04-25T05:19:15;1.60;;;1.50;;
25349;SDS011;13302;48.796;11.978;2023-04-25T05:22:09;1.53;;;1.53;;
25349;SDS011;13302;48.796;11.978;2023-04-25T05:25:15;1.50;;;1.50;;
25349;SDS011;13302;48.796;11.978;2023-04-25T05:28:24;2.10;;;1.90;;
25349;SDS011;13302;48.796;11.978;2023-04-25T05:31:38;1.57;;;1.47;;
25349;SDS011;13302;48.796;11.978;2023-04-25T05:34:31;1.70;;;1.60;;
25349;SDS011;13302;48.796;11.978;2023-04-25T05:37:21;2.47;;;1.70;;
25349;SDS011;13302;48.796;11.978;2023-04-25T05:40:17;2.10;;;1.70;;
25349;SDS011;13302;48.796;11.978;2023-04-25T05:43:11;1.70;;;1.60;;
25349;SDS011;13302;48.796;11.978;2023-04-25T05:46:07;2.00;;;1.90;;
25349;SDS011;13302;48.796;11.978;2023-04-25T05:49:12;2.00;;;1.87;;
25349;SDS011;13302;48.796;11.978;2023-04-25T05:52:18;1.70;;;1.60;;
25349;SDS011;13302;48.796;11.978;2023-04-25T05:55:15;2.27;;;1.80;;
25349;SDS011;13302;48.796;11.978;2023-04-25T05:58:04;2.10;;;2.00;;
25349;SDS011;13302;48.796;11.978;2023-04-25T06:00:52;1.67;;;1.60;;
25349;SDS011;13302;48.796;11.978;2023-04-25T06:03:39;2.03;;;1.93;;
25349;SDS011;13302;48.796;11.978;2023-04-25T06:06:30;2.07;;;1.97;;
25349;SDS011;13302;48.796;11.978;2023-04-25T06:09:18;2.10;;;2.00;;
25349;SDS011;13302;48.796;11.978;2023-04-25T06:12:05;2.00;;;1.90;;
25349;SDS011;13302;48.796;11.978;2023-04-25T06:14:53;2.07;;;1.97;;
25349;SDS011;13302;48.796;11.978;2023-04-25T06:17:40;1.80;;;1.70;;
25349;SDS011;13302;48.796;11.978;2023-04-25T06:20:28;1.73;;;1.73;;
25349;SDS011;13302;48.796;11.978;2023-04-25T06:23:17;1.80;;;1.80;;
25349;SDS011;13302;48.796;11.978;2023-04-25T06:26:12;2.10;;;2.00;;
25349;SDS011;13302;48.796;11.978;2023-04-25T06:29:02;2.33;;;2.20;;
25349;SDS011;13302;48.796;11.978;2023-04-25T06:31:49;2.17;;;2.07;;
25349;SDS011;13302;48.796;11.978;2023-04-25T06:34:37;2.23;;;2.03;;
25349;SDS011;13302;48.796;11.978;2023-04-25T06:37:25;2.10;;;2.00;;
25349;SDS011;13302;48.796;11.978;2023-04-25T06:40:12;2.50;;;2.40;;
25349;SDS011;13302;48.796;11.978;2023-04-25T06:42:59;2.00;;;1.90;;
25349;SDS011;13302;48.796;11.978;2023-04-25T06:46:08;2.43;;;1.90;;
25349;SDS011;13302;48.796;11.978;2023-04-25T06:49:01;2.43;;;2.23;;
25349;SDS011;13302;48.796;11.978;2023-04-25T06:51:48;3.07;;;2.10;;
25349;SDS011;13302;48.796;11.978;2023-04-25T06:54:36;2.33;;;2.17;;
25349;SDS011;13302;48.796;11.978;2023-04-25T06:57:35;2.20;;;1.73;;
25349;SDS011;13302;48.796;11.978;2023-04-25T07:00:42;1.60;;;1.50;;
25349;SDS011;13302;48.796;11.978;2023-04-25T07:03:29;2.07;;;1.80;;
25349;SDS011;13302;48.796;11.978;2023-04-25T07:06:21;2.50;;;1.70;;
25349;SDS011;13302;48.796;11.978;2023-04-25T07:09:08;2.10;;;1.87;;
25349;SDS011;13302;48.796;11.978;2023-04-25T07:12:02;1.60;;;1.50;;
25349;SDS011;13302;48.796;11.978;2023-04-25T07:14:49;1.80;;;1.70;;
25349;SDS011;13302;48.796;11.978;2023-04-25T07:17:36;1.90;;;1.80;;
25349;SDS011;13302;48.796;11.978;2023-04-25T07:20:24;2.20;;;1.80;;
25349;SDS011;13302;48.796;11.978;2023-04-25T07:23:11;1.50;;;1.50;;
25349;SDS011;13302;48.796;11.978;2023-04-25T07:25:59;1.90;;;1.73;;
25349;SDS011;13302;48.796;11.978;2023-04-25T07:28:48;2.03;;;1.90;;
25349;SDS011;13302;48.796;11.978;2023-04-25T07:31:39;2.13;;;1.77;;
25349;SDS011;13302;48.796;11.978;2023-04-25T07:34:26;3.37;;;2.00;;
25349;SDS011;13302;48.796;11.978;2023-04-25T07:37:14;4.33;;;2.10;;
25349;SDS011;13302;48.796;11.978;2023-04-25T07:40:17;2.27;;;2.17;;
25349;SDS011;13302;48.796;11.978;2023-04-25T07:43:12;2.93;;;2.30;;
25349;SDS011;13302;48.796;11.978;2023-04-25T07:46:12;2.40;;;2.20;;
25349;SDS011;13302;48.796;11.978;2023-04-25T07:49:00;2.50;;;2.40;;
25349;SDS011;13302;48.796;11.978;2023-04-25T07:51:48;2.37;;;2.20;;
25349;SDS011;13302;48.796;11.978;2023-04-25T07:54:38;2.57;;;2.47;;
25349;SDS011;13302;48.796;11.978;2023-04-25T07:57:34;2.33;;;2.23;;
25349;SDS011;13302;48.796;11.978;2023-04-25T08:00:22;4.23;;;2.60;;
25349;SDS011;13302;48.796;11.978;2023-04-25T08:03:16;2.67;;;2.47;;
25349;SDS011;13302;48.796;11.978;2023-04-25T08:06:04;3.23;;;2.70;;
25349;SDS011;13302;48.796;11.978;2023-04-25T08:09:01;4.03;;;2.87;;
25349;SDS011;13302;48.796;11.978;2023-04-25T08:11:55;2.93;;;2.40;;
25349;SDS011;13302;48.796;11.978;2023-04-25T08:14:47;2.43;;;2.33;;
25349;SDS011;13302;48.796;11.978;2023-04-25T08:17:35;2.63;;;2.53;;
25349;SDS011;13302;48.796;11.978;2023-04-25T08:20:22;2.43;;;2.30;;
25349;SDS011;13302;48.796;11.978;2023-04-25T08:23:12;2.60;;;2.50;;
25349;SDS011;13302;48.796;11.978;2023-04-25T08:26:19;2.70;;;2.50;;
25349;SDS011;13302;48.796;11.978;2023-04-25T08:29:08;2.30;;;2.20;;
25349;SDS011;13302;48.796;11.978;2023-04-25T08:31:58;2.53;;;2.30;;
25349;SDS011;13302;48.796;11.978;2023-04-25T08:34:46;2.30;;;2.20;;
25349;SDS011;13302;48.796;11.978;2023-04-25T08:37:34;2.67;;;2.43;;
25349;SDS011;13302;48.796;11.978;2023-04-25T08:40:29;2.60;;;2.10;;
25349;SDS011;13302;48.796;11.978;2023-04-25T08:43:25;2.97;;;2.67;;
25349;SDS011;13302;48.796;11.978;2023-04-25T08:46:12;2.30;;;2.20;;
25349;SDS011;13302;48.796;11.978;2023-04-25T08:49:25;2.80;;;2.50;;
25349;SDS011;13302;48.796;11.978;2023-04-25T08:52:12;2.53;;;2.33;;
25349;SDS011;13302;48.796;11.978;2023-04-25T08:55:00;2.37;;;2.27;;
25349;SDS011;13302;48.796;11.978;2023-04-25T08:57:49;1.87;;;1.77;;
25349;SDS011;13302;48.796;11.978;2023-04-25T09:00:38;2.20;;;2.10;;
25349;SDS011;13302;48.796;11.978;2023-04-25T09:03:25;2.37;;;2.17;;
25349;SDS011;13302;48.796;11.978;2023-04-25T09:06:12;2.93;;;1.80;;
25349;SDS011;13302;48.796;11.978;2023-04-25T09:09:04;2.03;;;1.93;;
25349;SDS011;13302;48.796;11.978;2023-04-25T09:11:53;2.60;;;1.97;;
25349;SDS011;13302;48.796;11.978;2023-04-25T09:14:41;1.70;;;1.60;;
25349;SDS011;13302;48.796;11.978;2023-04-25T09:17:45;1.90;;;1.80;;
25349;SDS011;13302;48.796;11.978;2023-04-25T09:20:42;1.93;;;1.70;;
25349;SDS011;13302;48.796;11.978;2023-04-25T09:23:41;2.33;;;2.10;;
25349;SDS011;13302;48.796;11.978;2023-04-25T09:26:33;1.87;;;1.80;;
25349;SDS011;13302;48.796;11.978;2023-04-25T09:29:32;2.10;;;1.90;;
25349;SDS011;13302;48.796;11.978;2023-04-25T09:32:21;2.00;;;1.93;;
25349;SDS011;13302;48.796;11.978;2023-04-25T09:35:23;2.07;;;1.93;;
25349;SDS011;13302;48.796;11.978;2023-04-25T09:38:14;2.27;;;2.07;;
25349;SDS011;13302;48.796;11.978;2023-04-25T09:41:25;1.80;;;1.80;;
25349;SDS011;13302;48.796;11.978;2023-04-25T09:44:15;2.00;;;1.90;;
25349;SDS011;13302;48.796;11.978;2023-04-25T09:47:04;2.13;;;2.03;;
25349;SDS011;13302;48.796;11.978;2023-04-25T09:49:56;2.80;;;2.13;;
25349;SDS011;13302;48.796;11.978;2023-04-25T09:52:43;2.07;;;1.97;;
25349;SDS011;13302;48.796;11.978;2023-04-25T09:55:38;1.97;;;1.80;;
25349;SDS011;13302;48.796;11.978;2023-04-25T09:58:28;1.70;;;1.70;;
25349;SDS011;13302;48.796;11.978;2023-04-25T10:01:19;1.57;;;1.57;;
25349;SDS011;13302;48.796;11.978;2023-04-25T10:04:22;1.63;;;1.53;;
25349;SDS011;13302;48.796;11.978;2023-04-25T10:07:25;1.40;;;1.30;;
25349;SDS011;13302;48.796;11.978;2023-04-25T10:10:16;1.47;;;1.37;;
25349;SDS011;13302;48.796;11.978;2023-04-25T10:13:04;1.20;;;1.13;;
25349;SDS011;13302;48.796;11.978;2023-04-25T10:15:52;1.00;;;1.00;;
25349;SDS011;13302;48.796;11.978;2023-04-25T10:19:02;1.07;;;1.07;;
25349;SDS011;13302;48.796;11.978;2023-04-25T10:21:58;0.83;;;0.83;;
25349;SDS011;13302;48.796;11.978;2023-04-25T10:24:50;1.00;;;1.00;;
25349;SDS011;13302;48.796;11.978;2023-04-25T10:27:38;0.90;;;0.90;;
25349;SDS011;13302;48.796;11.978;2023-04-25T10:30:25;0.90;;;0.90;;
25349;SDS011;13302;48.796;11.978;2023-04-25T10:33:18;1.10;;;1.10;;
25349;SDS011;13302;48.796;11.978;2023-04-25T10:36:19;1.00;;;1.00;;
25349;SDS011;13302;48.796;11.978;2023-04-25T10:39:07;0.70;;;0.70;;
25349;SDS011;13302;48.796;11.978;2023-04-25T10:41:56;0.73;;;0.73;;
25349;SDS011;13302;48.796;11.978;2023-04-25T10:45:00;0.83;;;0.83;;
25349;SDS011;13302;48.796;11.978;2023-04-25T10:47:54;0.80;;;0.80;;
25349;SDS011;13302;48.796;11.978;2023-04-25T10:50:41;0.90;;;0.90;;
25349;SDS011;13302;48.796;11.978;2023-04-25T10:53:30;1.20;;;1.20;;
25349;SDS011;13302;48.796;11.978;2023-04-25T10:56:19;1.37;;;1.37;;
25349;SDS011;13302;48.796;11.978;2023-04-25T10:59:14;1.77;;;1.67;;
25349;SDS011;13302;48.796;11.978;2023-04-25T11:02:02;1.67;;;1.67;;
25349;SDS011;13302;48.796;11.978;2023-04-25T11:04:59;1.57;;;1.53;;
25349;SDS011;13302;48.796;11.978;2023-04-25T11:07:53;1.53;;;1.50;;
25349;SDS011;13302;48.796;11.978;2023-04-25T11:10:53;1.50;;;1.50;;
25349;SDS011;13302;48.796;11.978;2023-04-25T11:13:41;1.67;;;1.67;;
25349;SDS011;13302;48.796;11.978;2023-04-25T11:16:28;1.70;;;1.70;;
25349;SDS011;13302;48.796;11.978;2023-04-25T11:19:15;1.93;;;1.80;;
25349;SDS011;13302;48.796;11.978;2023-04-25T11:22:02;1.70;;;1.70;;
25349;SDS011;13302;48.796;11.978;2023-04-25T11:24:50;1.80;;;1.70;;
25349;SDS011;13302;48.796;11.978;2023-04-25T11:27:38;1.80;;;1.80;;
25349;SDS011;13302;48.796;11.978;2023-04-25T11:30:36;1.40;;;1.40;;
25349;SDS011;13302;48.796;11.978;2023-04-25T11:33:24;1.30;;;1.30;;
25349;SDS011;13302;48.796;11.978;2023-04-25T11:36:12;1.27;;;1.27;;
25349;SDS011;13302;48.796;11.978;2023-04-25T11:38:58;1.40;;;1.40;;
25349;SDS011;13302;48.796;11.978;2023-04-25T11:41:46;1.40;;;1.40;;
25349;SDS011;13302;48.796;11.978;2023-04-25T11:44:33;1.50;;;1.40;;
25349;SDS011;13302;48.796;11.978;2023-04-25T11:47:27;1.30;;;1.30;;
25349;SDS011;13302;48.796;11.978;2023-04-25T11:50:18;1.47;;;1.47;;
25349;SDS011;13302;48.796;11.978;2023-04-25T11:53:04;1.87;;;1.77;;
25349;SDS011;13302;48.796;11.978;2023-04-25T11:55:52;1.20;;;1.20;;
25349;SDS011;13302;48.796;11.978;2023-04-25T11:58:59;1.30;;;1.27;;
25349;SDS011;13302;48.796;11.978;2023-04-25T12:01:48;1.10;;;1.10;;
25349;SDS011;13302;48.796;11.978;2023-04-25T12:04:36;1.60;;;1.60;;
25349;SDS011;13302;48.796;11.978;2023-04-25T12:07:28;1.60;;;1.50;;
25349;SDS011;13302;48.796;11.978;2023-04-25T12:10:17;1.53;;;1.50;;
25349;SDS011;13302;48.796;11.978;2023-04-25T12:13:21;1.60;;;1.53;;
25349;SDS011;13302;48.796;11.978;2023-04-25T12:16:10;1.37;;;1.30;;
25349;SDS011;13302;48.796;11.978;2023-04-25T12:18:57;1.80;;;1.70;;
25349;SDS011;13302;48.796;11.978;2023-04-25T12:21:47;1.37;;;1.37;;
25349;SDS011;13302;48.796;11.978;2023-04-25T12:24:44;1.33;;;1.33;;
25349;SDS011;13302;48.796;11.978;2023-04-25T12:27:31;1.30;;;1.30;;
25349;SDS011;13302;48.796;11.978;2023-04-25T12:30:18;1.70;;;1.50;;
25349;SDS011;13302;48.796;11.978;2023-04-25T12:33:05;1.40;;;1.40;;
25349;SDS011;13302;48.796;11.978;2023-04-25T12:35:54;1.47;;;1.47;;
25349;SDS011;13302;48.796;11.978;2023-04-25T12:38:41;1.60;;;1.50;;
25349;SDS011;13302;48.796;11.978;2023-04-25T12:41:29;1.40;;;1.40;;
25349;SDS011;13302;48.796;11.978;2023-04-25T12:44:16;1.43;;;1.33;;
25349;SDS011;13302;48.796;11.978;2023-04-25T12:47:04;1.27;;;1.27;;
25349;SDS011;13302;48.796;11.978;2023-04-25T12:49:52;1.10;;;1.10;;
25349;SDS011;13302;48.796;11.978;2023-04-25T12:52:39;1.30;;;1.20;;
25349;SDS011;13302;48.796;11.978;2023-04-25T12:55:26;1.50;;;0.87;;
25349;SDS011;13302;48.796;11.978;2023-04-25T12:58:13;0.97;;;0.97;;
25349;SDS011;13302;48.796;11.978;2023-04-25T13:01:02;1.20;;;1.10;;
25349;SDS011;13302;48.796;11.978;2023-04-25T13:03:49;1.30;;;1.20;;
25349;SDS011;13302;48.796;11.978;2023-04-25T13:06:38;1.33;;;1.33;;
25349;SDS011;13302;48.796;11.978;2023-04-25T13:09:25;1.10;;;1.10;;
25349;SDS011;13302;48.796;11.978;2023-04-25T13:12:12;1.07;;;0.97;;
25349;SDS011;13302;48.796;11.978;2023-04-25T13:14:59;1.47;;;1.40;;
25349;SDS011;13302;48.796;11.978;2023-04-25T13:17:46;1.43;;;1.43;;
25349;SDS011;13302;48.796;11.978;2023-04-25T13:20:33;2.13;;;1.80;;
25349;SDS011;13302;48.796;11.978;2023-04-25T13:23:20;1.17;;;1.17;;
25349;SDS011;13302;48.796;11.978;2023-04-25T13:26:08;1.50;;;1.50;;
25349;SDS011;13302;48.796;11.978;2023-04-25T13:28:55;1.40;;;1.30;;
25349;SDS011;13302;48.796;11.978;2023-04-25T13:31:42;1.33;;;1.33;;
25349;SDS011;13302;48.796;11.978;2023-04-25T13:34:29;1.80;;;1.70;;
25349;SDS011;13302;48.796;11.978;2023-04-25T13:37:17;1.23;;;1.20;;
25349;SDS011;13302;48.796;11.978;2023-04-25T13:40:05;1.23;;;1.23;;
25349;SDS011;13302;48.796;11.978;2023-04-25T13:42:56;2.37;;;1.50;;
25349;SDS011;13302;48.796;11.978;2023-04-25T13:45:43;1.43;;;1.43;;
25349;SDS011;13302;48.796;11.978;2023-04-25T13:48:30;1.40;;;1.40;;
25349;SDS011;13302;48.796;11.978;2023-04-25T13:51:17;1.63;;;1.40;;
25349;SDS011;13302;48.796;11.978;2023-04-25T13:54:04;3.40;;;1.77;;
25349;SDS011;13302;48.796;11.978;2023-04-25T13:56:51;1.47;;;1.43;;
25349;SDS011;13302;48.796;11.978;2023-04-25T13:59:41;1.50;;;1.50;;
25349;SDS011;13302;48.796;11.978;2023-04-25T14:02:29;1.43;;;1.37;;
25349;SDS011;13302;48.796;11.978;2023-04-25T14:05:16;1.40;;;1.40;;
25349;SDS011;13302;48.796;11.978;2023-04-25T14:08:04;1.80;;;1.40;;
25349;SDS011;13302;48.796;11.978;2023-04-25T14:10:55;1.60;;;1.50;;
25349;SDS011;13302;48.796;11.978;2023-04-25T14:13:42;1.97;;;1.87;;
25349;SDS011;13302;48.796;11.978;2023-04-25T14:16:29;1.97;;;1.87;;
25349;SDS011;13302;48.796;11.978;2023-04-25T14:19:17;2.43;;;1.73;;
25349;SDS011;13302;48.796;11.978;2023-04-25T14:22:07;1.80;;;1.70;;
25349;SDS011;13302;48.796;11.978;2023-04-25T14:24:54;2.20;;;2.00;;
25349;SDS011;13302;48.796;11.978;2023-04-25T14:27:41;1.77;;;1.60;;
25349;SDS011;13302;48.796;11.978;2023-04-25T14:30:28;1.60;;;1.60;;
25349;SDS011;13302;48.796;11.978;2023-04-25T14:33:16;1.43;;;1.43;;
25349;SDS011;13302;48.796;11.978;2023-04-25T14:36:03;2.23;;;1.90;;
25349;SDS011;13302;48.796;11.978;2023-04-25T14:38:50;1.30;;;1.27;;
25349;SDS011;13302;48.796;11.978;2023-04-25T14:41:37;1.87;;;1.77;;
25349;SDS011;13302;48.796;11.978;2023-04-25T14:44:24;1.70;;;1.60;;
25349;SDS011;13302;48.796;11.978;2023-04-25T14:47:11;2.03;;;1.60;;
25349;SDS011;13302;48.796;11.978;2023-04-25T14:49:58;1.53;;;1.43;;
25349;SDS011;13302;48.796;11.978;2023-04-25T14:52:45;1.57;;;1.47;;
25349;SDS011;13302;48.796;11.978;2023-04-25T14:55:32;1.40;;;1.40;;
25349;SDS011;13302;48.796;11.978;2023-04-25T14:58:19;1.17;;;1.07;;
25349;SDS011;13302;48.796;11.978;2023-04-25T15:01:07;1.10;;;1.10;;
25349;SDS011;13302;48.796;11.978;2023-04-25T15:03:55;1.20;;;1.20;;
25349;SDS011;13302;48.796;11.978;2023-04-25T15:06:42;1.30;;;1.30;;
25349;SDS011;13302;48.796;11.978;2023-04-25T15:09:30;1.13;;;1.13;;
25349;SDS011;13302;48.796;11.978;2023-04-25T15:12:17;1.67;;;1.03;;
25349;SDS011;13302;48.796;11.978;2023-04-25T15:15:04;1.00;;;1.00;;
25349;SDS011;13302;48.796;11.978;2023-04-25T15:17:52;0.80;;;0.80;;
25349;SDS011;13302;48.796;11.978;2023-04-25T15:20:44;0.83;;;0.83;;
25349;SDS011;13302;48.796;11.978;2023-04-25T15:23:31;1.03;;;0.93;;
25349;SDS011;13302;48.796;11.978;2023-04-25T15:26:18;1.00;;;1.00;;
25349;SDS011;13302;48.796;11.978;2023-04-25T15:29:06;1.00;;;1.00;;
25349;SDS011;13302;48.796;11.978;2023-04-25T15:31:53;1.10;;;1.10;;
25349;SDS011;13302;48.796;11.978;2023-04-25T15:34:40;1.00;;;1.00;;
25349;SDS011;13302;48.796;11.978;2023-04-25T15:37:27;1.10;;;1.10;;
25349;SDS011;13302;48.796;11.978;2023-04-25T15:40:15;1.10;;;1.10;;
25349;SDS011;13302;48.796;11.978;2023-04-25T15:43:02;1.17;;;1.17;;
25349;SDS011;13302;48.796;11.978;2023-04-25T15:45:49;1.20;;;1.20;;
25349;SDS011;13302;48.796;11.978;2023-04-25T15:48:37;1.20;;;1.20;;
25349;SDS011;13302;48.796;11.978;2023-04-25T15:51:24;1.30;;;1.20;;
25349;SDS011;13302;48.796;11.978;2023-04-25T15:54:11;0.97;;;0.97;;
25349;SDS011;13302;48.796;11.978;2023-04-25T15:56:58;1.13;;;1.10;;
25349;SDS011;13302;48.796;11.978;2023-04-25T15:59:46;1.13;;;1.00;;
25349;SDS011;13302;48.796;11.978;2023-04-25T16:02:34;1.00;;;1.00;;
25349;SDS011;13302;48.796;11.978;2023-04-25T16:05:21;1.00;;;1.00;;
25349;SDS011;13302;48.796;11.978;2023-04-25T16:08:09;1.10;;;1.10;;
25349;SDS011;13302;48.796;11.978;2023-04-25T16:10:56;1.10;;;1.10;;
25349;SDS011;13302;48.796;11.978;2023-04-25T16:13:43;1.00;;;1.00;;
25349;SDS011;13302;48.796;11.978;2023-04-25T16:16:30;0.90;;;0.90;;
25349;SDS011;13302;48.796;11.978;2023-04-25T16:19:17;1.60;;;1.03;;
25349;SDS011;13302;48.796;11.978;2023-04-25T16:22:04;1.30;;;1.30;;
25349;SDS011;13302;48.796;11.978;2023-04-25T16:24:54;1.23;;;0.97;;
25349;SDS011;13302;48.796;11.978;2023-04-25T16:27:41;1.10;;;1.10;;
25349;SDS011;13302;48.796;11.978;2023-04-25T16:30:28;1.43;;;1.10;;
25349;SDS011;13302;48.796;11.978;2023-04-25T16:33:15;1.30;;;1.30;;
25349;SDS011;13302;48.796;11.978;2023-04-25T16:36:02;1.53;;;1.03;;
25349;SDS011;13302;48.796;11.978;2023-04-25T16:38:49;1.03;;;1.03;;
25349;SDS011;13302;48.796;11.978;2023-04-25T16:41:37;1.27;;;1.27;;
25349;SDS011;13302;48.796;11.978;2023-04-25T16:44:24;2.30;;;1.50;;
25349;SDS011;13302;48.796;11.978;2023-04-25T16:47:11;1.57;;;1.57;;
25349;SDS011;13302;48.796;11.978;2023-04-25T16:50:03;1.40;;;1.40;;
25349;SDS011;13302;48.796;11.978;2023-04-25T16:52:51;1.37;;;1.30;;